Time;durP1;ratioP1;P1;durP2;ratioP2;P2;SDS_P1;SDS_P2;PMS_P1;PMS_P2;Temp;Humidity;BMP_temperature;BMP_pressure;BME280_temperature;BME280_humidity;BME280_pressure;Samples;Min_cycle;Max_cycle;Signal;HPM_P1;HPM_P2
2021/08/23 00:00:57;;;;;;;2.83;2.72;;;19.30;60.60;;;;;;5054694;28;20025;-83
2021/08/23 00:03:23;;;;;;;2.80;2.70;;;19.30;60.70;;;;;;5053477;28;20051;-83
2021/08/23 00:05:49;;;;;;;2.90;2.80;;;19.30;60.80;;;;;;5059035;28;20025;-83
2021/08/23 00:08:16;;;;;;;2.72;2.63;;;19.30;60.90;;;;;;5057302;28;20191;-83
2021/08/23 00:10:42;;;;;;;3.00;2.90;;;19.30;60.90;;;;;;5054638;28;20025;-83
2021/08/23 00:13:08;;;;;;;2.92;2.83;;;19.40;60.90;;;;;;5055977;28;20024;-84
2021/08/23 00:15:37;;;;;;;2.92;2.83;;;19.40;60.90;;;;;;5051515;28;20036;-83
2021/08/23 00:18:03;;;;;;;3.05;2.85;;;19.40;61.00;;;;;;5057772;28;20056;-83
2021/08/23 00:20:50;;;;;;;3.00;2.90;;;19.40;61.00;;;;;;5054441;28;20033;-84
2021/08/23 00:23:16;;;;;;;2.70;2.60;;;19.30;61.10;;;;;;5042192;28;20059;-83
2021/08/23 00:25:42;;;;;;;2.70;2.60;;;19.30;61.90;;;;;;5057036;28;20029;-83
2021/08/23 00:28:09;;;;;;;2.90;2.80;;;19.30;61.10;;;;;;5055717;28;20028;-83
2021/08/23 00:30:35;;;;;;;2.95;2.85;;;19.30;61.20;;;;;;5051328;28;20048;-82
2021/08/23 00:33:02;;;;;;;2.85;2.75;;;19.30;61.30;;;;;;5057563;28;20028;-82
2021/08/23 00:35:28;;;;;;;2.70;2.60;;;19.20;61.30;;;;;;5055588;28;20398;-85
2021/08/23 00:37:55;;;;;;;3.03;2.88;;;19.30;61.50;;;;;;5055554;28;20504;-83
2021/08/23 00:40:24;;;;;;;3.35;3.15;;;19.20;61.50;;;;;;5055541;28;20044;-83
2021/08/23 00:42:51;;;;;;;2.78;2.67;;;19.20;61.60;;;;;;5054976;28;20050;-83
2021/08/23 00:45:19;;;;;;;2.88;2.78;;;19.20;61.60;;;;;;5052269;28;20049;-83
2021/08/23 00:47:45;;;;;;;2.70;2.60;;;19.20;61.60;;;;;;5058286;28;20024;-83
2021/08/23 00:50:11;;;;;;;2.70;2.60;;;19.10;61.70;;;;;;5054530;28;20036;-83
2021/08/23 00:52:37;;;;;;;2.70;2.60;;;19.10;61.90;;;;;;5038727;28;20239;-83
2021/08/23 00:55:04;;;;;;;2.70;2.60;;;19.00;61.90;;;;;;5038592;28;20044;-84
2021/08/23 00:57:30;;;;;;;2.70;2.60;;;19.00;62.00;;;;;;5051639;28;20487;-83
2021/08/23 00:59:56;;;;;;;2.72;2.63;;;19.00;62.10;;;;;;5069447;28;20020;-84
2021/08/23 01:02:41;;;;;;;2.53;2.42;;;19.00;62.20;;;;;;5054290;28;20048;-83
2021/08/23 01:05:18;;;;;;;2.75;2.65;;;19.00;62.30;;;;;;5055028;28;20040;-83
2021/08/23 01:07:49;;;;;;;2.53;2.42;;;18.90;62.20;;;;;;5054909;28;20079;-83
2021/08/23 01:10:17;;;;;;;2.50;2.40;;;18.90;62.40;;;;;;5053847;28;20492;-82
2021/08/23 01:12:43;;;;;;;2.88;2.78;;;18.90;62.40;;;;;;5051970;28;20048;-83
2021/08/23 01:15:09;;;;;;;2.78;2.67;;;18.90;62.50;;;;;;5053458;28;20386;-83
2021/08/23 01:17:35;;;;;;;2.78;2.67;;;18.80;62.50;;;;;;5054753;28;20025;-84
2021/08/23 01:20:04;;;;;;;3.05;2.85;;;18.80;62.60;;;;;;5054974;28;20037;-82
2021/08/23 01:22:38;;;;;;;3.58;3.28;;;18.80;62.70;;;;;;5054134;28;20044;-85
2021/08/23 01:25:04;;;;;;;2.65;2.55;;;18.70;62.70;;;;;;5054471;28;20071;-84
2021/08/23 01:27:33;;;;;;;3.17;3.08;;;18.70;62.80;;;;;;5049115;28;20572;-83
2021/08/23 01:30:09;;;;;;;3.10;3.00;;;18.60;62.90;;;;;;5064405;28;20044;-83
2021/08/23 01:32:35;;;;;;;3.47;3.28;;;18.60;63.00;;;;;;5039136;28;20033;-83
2021/08/23 01:35:02;;;;;;;3.25;3.10;;;18.60;63.20;;;;;;5022150;28;20045;-83
2021/08/23 01:37:30;;;;;;;3.13;3.03;;;18.60;63.20;;;;;;5055519;28;20025;-84
2021/08/23 01:39:56;;;;;;;3.30;3.20;;;18.60;63.30;;;;;;5038351;28;20067;-83
2021/08/23 01:42:22;;;;;;;3.03;2.92;;;18.50;63.30;;;;;;5051831;28;20034;-83
2021/08/23 01:44:48;;;;;;;3.03;2.92;;;18.50;63.50;;;;;;5057396;28;20382;-84
2021/08/23 01:47:14;;;;;;;2.83;2.72;;;18.50;63.60;;;;;;5054693;28;20040;-83
2021/08/23 01:49:40;;;;;;;2.83;2.72;;;18.40;63.60;;;;;;5054057;28;20394;-83
2021/08/23 01:52:07;;;;;;;2.85;2.75;;;18.50;63.60;;;;;;5054502;28;20033;-82
2021/08/23 01:54:33;;;;;;;2.75;2.65;;;18.50;63.70;;;;;;5066653;28;20036;-83
2021/08/23 01:56:59;;;;;;;2.67;2.58;;;18.40;63.70;;;;;;5057002;28;20502;-81
2021/08/23 01:59:26;;;;;;;2.63;2.53;;;18.40;63.80;;;;;;5053615;28;20037;-83
2021/08/23 02:01:52;;;;;;;2.80;2.70;;;18.40;63.90;;;;;;5042713;28;20033;-84
2021/08/23 02:04:18;;;;;;;2.78;2.67;;;18.40;63.90;;;;;;5041633;28;20059;-82
2021/08/23 02:06:44;;;;;;;2.65;2.55;;;18.40;63.90;;;;;;5047132;28;20036;-82
2021/08/23 02:09:10;;;;;;;2.92;2.83;;;18.40;63.90;;;;;;5041155;28;20037;-81
2021/08/23 02:11:36;;;;;;;2.92;2.83;;;18.40;64.00;;;;;;5036126;28;20056;-82
2021/08/23 02:14:02;;;;;;;2.90;2.80;;;18.40;64.00;;;;;;5037229;28;20037;-80
2021/08/23 02:16:28;;;;;;;2.65;2.55;;;18.40;64.10;;;;;;5033793;28;20050;-83
2021/08/23 02:18:54;;;;;;;2.83;2.72;;;18.30;64.10;;;;;;5033474;28;20386;-83
2021/08/23 02:21:21;;;;;;;2.78;2.67;;;18.30;64.20;;;;;;5033657;28;20041;-82
2021/08/23 02:23:49;;;;;;;6.82;3.25;;;18.30;64.30;;;;;;5035338;28;20044;-83
2021/08/23 02:26:15;;;;;;;2.80;2.70;;;18.30;64.40;;;;;;5034663;28;20030;-83
2021/08/23 02:28:41;;;;;;;2.65;2.55;;;18.20;64.40;;;;;;5034603;28;20034;-84
2021/08/23 02:31:07;;;;;;;2.60;2.50;;;18.20;64.50;;;;;;5034944;28;20489;-83
2021/08/23 02:33:33;;;;;;;2.70;2.60;;;18.20;64.60;;;;;;5029966;28;20055;-83
2021/08/23 02:35:59;;;;;;;2.50;2.40;;;18.10;64.70;;;;;;5041043;28;20472;-84
2021/08/23 02:38:26;;;;;;;2.47;2.33;;;18.10;64.80;;;;;;5058071;28;20036;-83
2021/08/23 02:40:52;;;;;;;2.30;2.20;;;18.00;64.80;;;;;;5058075;28;20108;-83
2021/08/23 02:43:18;;;;;;;2.53;2.42;;;18.00;65.00;;;;;;5054758;28;20520;-82
2021/08/23 02:45:45;;;;;;;2.63;2.53;;;18.00;65.10;;;;;;5050547;28;20046;-83
2021/08/23 02:48:11;;;;;;;2.47;2.38;;;18.00;65.20;;;;;;5056518;28;20029;-83
2021/08/23 02:50:37;;;;;;;2.30;2.20;;;18.00;65.30;;;;;;5092365;28;20044;-82
2021/08/23 02:53:03;;;;;;;2.45;2.35;;;17.90;65.30;;;;;;5057285;28;20136;-83
2021/08/23 02:55:29;;;;;;;2.45;2.35;;;17.90;65.30;;;;;;5058848;28;20040;-83
2021/08/23 02:57:55;;;;;;;2.30;2.20;;;17.90;65.40;;;;;;5056402;28;20032;-83
2021/08/23 03:00:21;;;;;;;2.20;2.10;;;17.80;65.50;;;;;;5054517;28;24230;-83
2021/08/23 03:02:47;;;;;;;10.27;2.85;;;17.80;65.60;;;;;;5057589;28;20040;-82
2021/08/23 03:05:13;;;;;;;3.10;2.90;;;17.80;65.70;;;;;;5057381;28;20032;-82
2021/08/23 03:07:40;;;;;;;2.55;2.45;;;17.80;65.70;;;;;;5057370;28;20052;-83
2021/08/23 03:10:06;;;;;;;2.60;2.50;;;17.80;65.80;;;;;;5058556;28;20383;-83
2021/08/23 03:12:33;;;;;;;2.25;2.15;;;17.80;65.80;;;;;;5054341;28;20030;-83
2021/08/23 03:14:59;;;;;;;2.60;2.50;;;17.80;65.80;;;;;;5074089;28;20049;-81
2021/08/23 03:17:25;;;;;;;2.72;2.63;;;17.80;66.60;;;;;;5056562;28;20048;-82
2021/08/23 03:19:51;;;;;;;3.00;2.80;;;17.80;65.90;;;;;;5042054;28;20052;-83
2021/08/23 03:22:17;;;;;;;2.45;2.35;;;17.80;66.00;;;;;;5058009;28;20032;-83
2021/08/23 03:24:43;;;;;;;2.40;2.30;;;17.80;66.00;;;;;;5053691;28;20041;-83
2021/08/23 03:27:09;;;;;;;2.75;2.55;;;17.80;66.10;;;;;;5056422;28;20496;-84
2021/08/23 03:29:35;;;;;;;4.75;2.28;;;17.80;66.00;;;;;;5058845;28;20040;-83
2021/08/23 03:32:01;;;;;;;2.50;2.40;;;17.80;66.00;;;;;;5057511;28;20413;-82
2021/08/23 03:34:27;;;;;;;2.20;2.10;;;17.80;66.10;;;;;;5057798;28;20051;-83
2021/08/23 03:36:53;;;;;;;2.30;2.20;;;17.80;66.20;;;;;;5040292;28;20044;-83
2021/08/23 03:39:20;;;;;;;2.50;2.40;;;17.70;66.20;;;;;;5053308;28;20048;-82
2021/08/23 03:41:46;;;;;;;2.60;2.50;;;17.70;66.20;;;;;;5059923;28;20037;-83
2021/08/23 03:44:12;;;;;;;2.30;2.20;;;17.70;66.20;;;;;;5057457;28;20037;-83
2021/08/23 03:46:38;;;;;;;3.03;2.47;;;17.70;66.30;;;;;;5057250;28;20056;-81
2021/08/23 03:49:04;;;;;;;2.60;2.50;;;17.70;66.40;;;;;;5057586;28;20039;-80
2021/08/23 03:51:30;;;;;;;2.50;2.40;;;17.60;66.30;;;;;;5052293;28;20013;-85
2021/08/23 03:53:57;;;;;;;2.35;2.25;;;17.60;66.40;;;;;;5059762;28;20025;-82
2021/08/23 03:56:23;;;;;;;2.40;2.30;;;17.60;66.50;;;;;;5055617;28;20029;-83
2021/08/23 03:58:50;;;;;;;2.20;2.10;;;17.60;66.50;;;;;;5057157;28;20032;-84
2021/08/23 04:01:16;;;;;;;2.33;2.22;;;17.50;66.50;;;;;;5055899;28;20039;-83
2021/08/23 04:03:42;;;;;;;2.83;2.63;;;17.50;66.60;;;;;;5052876;28;20387;-83
2021/08/23 04:06:12;;;;;;;2.40;2.30;;;17.50;66.60;;;;;;5056901;28;20021;-83
2021/08/23 04:08:39;;;;;;;2.13;2.03;;;17.50;66.70;;;;;;5071833;28;20065;-83
2021/08/23 04:11:05;;;;;;;2.30;2.20;;;17.40;66.70;;;;;;5045163;28;20052;-84
2021/08/23 04:13:31;;;;;;;2.30;2.20;;;17.40;66.70;;;;;;5055734;28;20031;-84
2021/08/23 04:16:00;;;;;;;2.40;2.30;;;17.40;66.80;;;;;;5054757;28;20037;-83
2021/08/23 04:18:29;;;;;;;2.20;2.10;;;17.40;66.90;;;;;;5052037;28;20044;-83
2021/08/23 04:20:55;;;;;;;2.28;2.17;;;17.30;66.90;;;;;;5057782;28;20041;-83
2021/08/23 04:23:21;;;;;;;2.70;2.53;;;17.30;66.90;;;;;;5056908;28;20060;-83
2021/08/23 04:25:47;;;;;;;2.20;2.10;;;17.30;67.00;;;;;;5055456;28;20041;-86
2021/08/23 04:28:14;;;;;;;2.67;2.47;;;17.20;67.00;;;;;;5055596;28;20035;-83
2021/08/23 04:30:40;;;;;;;2.10;2.00;;;17.20;67.10;;;;;;5051722;28;20044;-83
2021/08/23 04:33:06;;;;;;;2.10;2.00;;;17.20;67.20;;;;;;5056797;28;20048;-84
2021/08/23 04:35:32;;;;;;;2.30;2.20;;;17.20;67.20;;;;;;5056203;28;20045;-83
2021/08/23 04:37:58;;;;;;;2.40;2.20;;;17.20;67.30;;;;;;5055559;28;20033;-83
2021/08/23 04:40:24;;;;;;;2.50;2.40;;;17.10;67.20;;;;;;5055067;28;20028;-83
2021/08/23 04:42:50;;;;;;;2.10;2.00;;;17.10;67.30;;;;;;5053202;28;20446;-83
2021/08/23 04:45:16;;;;;;;1.98;1.88;;;17.10;67.30;;;;;;5052396;28;20045;-84
2021/08/23 04:47:42;;;;;;;2.97;2.78;;;17.10;67.40;;;;;;5057521;28;20459;-83
2021/08/23 04:50:09;;;;;;;2.10;2.00;;;17.00;67.30;;;;;;5055191;28;20033;-80
2021/08/23 04:52:44;;;;;;;2.35;2.25;;;17.00;67.40;;;;;;5055032;28;20035;-83
2021/08/23 04:55:11;;;;;;;2.10;2.00;;;17.00;67.40;;;;;;5056040;28;20029;-83
2021/08/23 04:57:37;;;;;;;2.30;2.20;;;17.10;67.40;;;;;;5051026;28;20091;-83
2021/08/23 05:00:06;;;;;;;2.55;2.45;;;17.00;67.40;;;;;;5056711;28;20033;-85
2021/08/23 05:02:32;;;;;;;2.75;2.58;;;17.00;67.40;;;;;;5055644;28;20029;-82
2021/08/23 05:04:58;;;;;;;2.35;2.25;;;17.00;67.40;;;;;;5055065;28;20040;-85
2021/08/23 05:07:24;;;;;;;2.15;2.05;;;17.00;67.60;;;;;;5056198;28;20043;-85
2021/08/23 05:09:51;;;;;;;2.17;2.08;;;16.90;67.50;;;;;;5051642;28;20040;-85
2021/08/23 05:12:17;;;;;;;2.35;2.25;;;16.90;67.50;;;;;;5053359;28;20043;-85
2021/08/23 05:14:43;;;;;;;2.05;1.95;;;16.90;67.60;;;;;;5056909;28;20487;-83
2021/08/23 05:17:09;;;;;;;2.30;2.20;;;16.90;67.60;;;;;;5054351;28;20037;-84
2021/08/23 05:19:35;;;;;;;2.10;2.00;;;16.90;67.70;;;;;;5056004;28;20029;-85
2021/08/23 05:22:01;;;;;;;2.33;2.22;;;16.90;67.70;;;;;;5052999;28;20033;-86
2021/08/23 05:24:27;;;;;;;2.38;2.28;;;16.90;67.70;;;;;;5051392;28;20040;-85
2021/08/23 05:26:53;;;;;;;4.30;2.60;;;16.90;67.70;;;;;;5057760;28;20033;-85
2021/08/23 05:29:19;;;;;;;2.50;2.40;;;16.90;67.60;;;;;;5055690;28;20036;-85
2021/08/23 05:31:45;;;;;;;2.20;2.10;;;16.90;67.60;;;;;;5053949;28;20048;-84
2021/08/23 05:34:11;;;;;;;2.55;2.45;;;17.00;67.60;;;;;;5054363;28;20041;-84
2021/08/23 05:36:37;;;;;;;3.00;2.80;;;17.00;67.60;;;;;;5050905;28;20036;-84
2021/08/23 05:39:03;;;;;;;2.67;2.58;;;17.00;67.60;;;;;;5054598;28;20462;-85
2021/08/23 05:41:32;;;;;;;3.42;3.17;;;17.00;67.60;;;;;;5054473;28;20036;-85
2021/08/23 05:43:58;;;;;;;3.40;3.20;;;17.00;67.60;;;;;;5055452;28;20044;-85
2021/08/23 05:46:24;;;;;;;3.00;2.90;;;17.00;67.60;;;;;;5054881;28;20045;-84
2021/08/23 05:48:50;;;;;;;3.22;3.10;;;17.10;67.60;;;;;;5050878;28;20466;-85
2021/08/23 05:51:17;;;;;;;2.90;2.80;;;17.10;67.50;;;;;;5051620;28;20407;-86
2021/08/23 05:53:43;;;;;;;2.95;2.85;;;17.10;67.50;;;;;;5055762;28;20069;-85
2021/08/23 05:56:09;;;;;;;3.30;2.80;;;17.10;67.50;;;;;;5037594;28;20037;-85
2021/08/23 05:58:36;;;;;;;3.10;2.90;;;17.10;67.60;;;;;;5055226;28;20482;-84
2021/08/23 06:01:02;;;;;;;3.85;3.03;;;17.10;67.70;;;;;;5053148;28;20032;-85
2021/08/23 06:03:28;;;;;;;3.42;3.13;;;17.20;67.70;;;;;;5049527;28;20034;-82
2021/08/23 06:05:55;;;;;;;3.28;3.17;;;17.20;67.60;;;;;;5057081;28;20036;-85
2021/08/23 06:08:21;;;;;;;3.35;3.15;;;17.20;67.60;;;;;;5054860;28;20032;-85
2021/08/23 06:10:47;;;;;;;3.13;3.03;;;17.20;67.70;;;;;;5053835;28;20036;-83
2021/08/23 06:13:13;;;;;;;3.85;3.55;;;17.20;67.80;;;;;;5053802;28;20389;-86
2021/08/23 06:15:39;;;;;;;3.50;3.30;;;17.20;67.80;;;;;;5051102;28;20045;-87
2021/08/23 06:18:05;;;;;;;3.17;2.97;;;17.10;68.00;;;;;;5055199;28;20512;-84
2021/08/23 06:20:31;;;;;;;2.72;2.63;;;17.10;67.90;;;;;;5054257;28;20036;-85
2021/08/23 06:22:57;;;;;;;2.70;2.60;;;17.10;68.00;;;;;;5054525;28;20433;-84
2021/08/23 06:25:24;;;;;;;2.78;2.47;;;17.10;68.00;;;;;;5053692;28;20040;-85
2021/08/23 06:27:50;;;;;;;2.60;2.50;;;17.10;68.00;;;;;;5053558;28;20037;-84
2021/08/23 06:30:16;;;;;;;2.75;2.55;;;17.20;68.00;;;;;;5034394;28;20048;-84
2021/08/23 06:32:42;;;;;;;2.70;2.60;;;17.30;67.90;;;;;;5054696;28;20013;-85
2021/08/23 06:35:09;;;;;;;3.15;2.97;;;17.30;67.80;;;;;;5054596;28;20082;-84
2021/08/23 06:37:36;;;;;;;3.38;3.28;;;17.40;67.70;;;;;;5036654;28;20391;-84
2021/08/23 06:40:07;;;;;;;3.00;2.90;;;17.50;67.60;;;;;;5064517;28;20025;-84
2021/08/23 06:42:35;;;;;;;2.72;2.53;;;17.50;67.50;;;;;;5033615;28;20030;-85
2021/08/23 06:45:02;;;;;;;3.08;2.92;;;17.50;67.40;;;;;;5055890;28;20037;-83
2021/08/23 06:47:28;;;;;;;2.83;2.67;;;17.60;67.50;;;;;;5052664;28;20033;-84
2021/08/23 06:49:54;;;;;;;3.05;2.95;;;17.60;67.60;;;;;;5054745;28;20033;-84
2021/08/23 06:52:20;;;;;;;3.30;3.10;;;17.60;67.60;;;;;;5054107;28;20392;-85
2021/08/23 06:54:46;;;;;;;3.15;3.05;;;17.70;67.50;;;;;;5051154;28;20037;-83
2021/08/23 06:57:12;;;;;;;3.50;3.30;;;18.00;67.20;;;;;;5053241;28;20029;-85
2021/08/23 06:59:38;;;;;;;4.20;4.00;;;18.50;66.50;;;;;;5069090;28;20028;-85
2021/08/23 07:02:04;;;;;;;4.15;3.95;;;18.80;65.80;;;;;;5057073;28;20052;-85
2021/08/23 07:04:30;;;;;;;4.03;3.83;;;19.10;65.40;;;;;;5054419;28;20033;-85
2021/08/23 07:06:56;;;;;;;2.58;2.47;;;19.40;65.00;;;;;;5052518;28;20036;-85
2021/08/23 07:09:22;;;;;;;2.72;2.63;;;19.60;64.50;;;;;;5050029;28;20446;-85
2021/08/23 07:11:48;;;;;;;2.53;2.42;;;19.70;64.40;;;;;;5056383;28;20025;-83
2021/08/23 07:14:15;;;;;;;3.42;3.33;;;19.70;64.50;;;;;;5054593;28;20033;-85
2021/08/23 07:16:41;;;;;;;3.30;3.10;;;19.60;64.60;;;;;;5052965;28;20041;-84
2021/08/23 07:19:07;;;;;;;3.65;3.45;;;19.60;64.80;;;;;;5052965;28;20293;-85
2021/08/23 07:21:33;;;;;;;3.67;3.47;;;19.60;64.90;;;;;;5048637;28;20025;-85
2021/08/23 07:23:59;;;;;;;3.50;3.30;;;19.80;64.80;;;;;;5038560;28;20044;-83
2021/08/23 07:26:25;;;;;;;4.28;4.07;;;20.00;64.50;;;;;;5053373;28;20044;-84
2021/08/23 07:28:52;;;;;;;4.40;4.20;;;20.20;64.20;;;;;;5054258;28;20036;-85
2021/08/23 07:31:18;;;;;;;4.55;4.35;;;20.50;63.80;;;;;;5052764;28;20063;-83
2021/08/23 07:33:44;;;;;;;3.85;3.65;;;20.70;63.40;;;;;;5053903;28;20067;-85
2021/08/23 07:36:10;;;;;;;5.90;5.60;;;20.80;63.10;;;;;;5056852;28;20029;-85
2021/08/23 07:38:36;;;;;;;4.88;4.68;;;20.90;63.10;;;;;;5074736;28;20056;-85
2021/08/23 07:41:03;;;;;;;3.72;3.53;;;21.10;62.80;;;;;;5057662;28;20044;-85
2021/08/23 07:43:30;;;;;;;3.47;3.28;;;21.40;63.20;;;;;;5057831;28;20482;-86
2021/08/23 07:45:56;;;;;;;6.47;6.18;;;21.70;62.00;;;;;;5053845;28;20393;-85
2021/08/23 07:48:22;;;;;;;6.00;5.70;;;22.00;61.50;;;;;;5053181;28;20048;-84
2021/08/23 07:50:50;;;;;;;5.75;5.35;;;22.10;61.20;;;;;;5059377;28;20413;-85
2021/08/23 07:53:16;;;;;;;5.07;4.78;;;22.30;61.10;;;;;;5057712;28;20040;-84
2021/08/23 07:55:43;;;;;;;5.55;5.25;;;22.30;60.90;;;;;;5056234;28;20048;-85
2021/08/23 07:58:09;;;;;;;5.63;5.38;;;22.20;61.20;;;;;;5056111;28;20035;-84
2021/08/23 08:00:35;;;;;;;5.28;5.05;;;22.20;61.40;;;;;;5053167;28;20040;-84
2021/08/23 08:03:01;;;;;;;4.90;4.60;;;22.30;61.00;;;;;;5058914;28;20021;-85
2021/08/23 08:05:27;;;;;;;4.28;4.07;;;22.30;61.00;;;;;;5056021;28;20060;-85
2021/08/23 08:07:53;;;;;;;4.72;4.45;;;22.10;62.00;;;;;;5056180;28;20462;-84
2021/08/23 08:10:19;;;;;;;4.55;4.35;;;22.10;61.50;;;;;;5056190;28;20043;-85
2021/08/23 08:12:45;;;;;;;4.90;4.60;;;22.20;61.60;;;;;;5054812;28;20021;-84
2021/08/23 08:15:12;;;;;;;4.78;4.57;;;22.30;61.30;;;;;;5055532;28;20033;-85
2021/08/23 08:17:38;;;;;;;4.70;4.50;;;22.30;61.00;;;;;;5073708;28;20036;-85
2021/08/23 08:20:06;;;;;;;4.97;4.70;;;22.30;61.00;;;;;;5054458;28;20032;-82
2021/08/23 08:22:32;;;;;;;4.80;4.60;;;22.40;60.90;;;;;;5056284;28;20036;-85
2021/08/23 08:24:58;;;;;;;4.35;4.15;;;22.50;60.70;;;;;;5054876;28;20047;-85
2021/08/23 08:27:24;;;;;;;5.40;4.97;;;22.70;60.40;;;;;;5053649;28;20033;-84
2021/08/23 08:29:50;;;;;;;5.30;5.10;;;23.00;60.10;;;;;;5058927;28;20052;-85
2021/08/23 08:32:17;;;;;;;5.40;5.10;;;23.10;59.70;;;;;;5054818;28;20040;-85
2021/08/23 08:34:43;;;;;;;5.10;4.90;;;23.20;59.60;;;;;;5037856;28;20045;-85
2021/08/23 08:37:09;;;;;;;6.32;6.03;;;23.50;59.30;;;;;;5054064;28;20033;-85
2021/08/23 08:39:35;;;;;;;5.78;5.47;;;23.80;58.80;;;;;;5052797;28;20025;-87
2021/08/23 08:42:02;;;;;;;6.07;5.78;;;24.00;58.60;;;;;;5058545;28;20029;-85
2021/08/23 08:44:28;;;;;;;6.38;6.07;;;24.00;58.50;;;;;;5054812;28;20040;-85
2021/08/23 08:46:55;;;;;;;5.18;4.97;;;24.00;58.50;;;;;;5037952;28;20048;-85
2021/08/23 08:49:22;;;;;;;5.25;5.05;;;24.00;58.60;;;;;;5056977;28;20048;-85
2021/08/23 08:51:48;;;;;;;5.50;5.22;;;24.00;58.40;;;;;;5054349;28;20043;-85
2021/08/23 08:54:14;;;;;;;6.22;5.93;;;24.10;58.50;;;;;;5053424;28;20029;-85
2021/08/23 08:56:40;;;;;;;6.22;5.93;;;24.10;58.50;;;;;;5056009;28;20037;-85
2021/08/23 08:59:06;;;;;;;5.80;5.50;;;24.30;58.20;;;;;;5055247;28;20032;-85
2021/08/23 09:01:32;;;;;;;5.80;5.50;;;24.40;57.90;;;;;;5053506;28;20044;-83
2021/08/23 09:04:02;;;;;;;5.70;5.40;;;24.40;57.80;;;;;;5053045;28;20057;-85
2021/08/23 09:06:39;;;;;;;6.15;5.85;;;24.50;57.90;;;;;;5052176;28;20576;-86
2021/08/23 09:09:12;;;;;;;6.05;5.75;;;24.60;57.80;;;;;;5047728;28;20040;-87
2021/08/23 09:11:40;;;;;;;6.28;5.97;;;24.70;57.60;;;;;;5056438;28;20048;-86
2021/08/23 09:14:07;;;;;;;6.68;6.20;;;24.80;57.30;;;;;;5054932;28;20029;-86
2021/08/23 09:16:39;;;;;;;5.63;5.40;;;24.90;57.20;;;;;;5055941;28;20386;-86
2021/08/23 09:19:06;;;;;;;6.72;6.43;;;24.80;57.20;;;;;;5054881;28;20040;-83
2021/08/23 09:21:40;;;;;;;6.43;6.13;;;24.90;57.30;;;;;;5050390;28;20029;-85
2021/08/23 09:24:27;;;;;;;6.60;6.30;;;25.00;57.10;;;;;;5064499;28;20041;-85
2021/08/23 09:27:05;;;;;;;6.95;6.63;;;25.20;56.80;;;;;;5053109;28;20048;-86
2021/08/23 09:29:34;;;;;;;5.97;5.68;;;25.50;56.40;;;;;;5056767;28;20028;-86
2021/08/23 09:32:00;;;;;;;6.47;6.18;;;25.40;56.10;;;;;;5062519;28;20496;-86
2021/08/23 09:34:26;;;;;;;6.45;6.15;;;25.40;56.20;;;;;;5064126;28;20052;-86
2021/08/23 09:36:58;;;;;;;5.80;5.50;;;25.30;56.30;;;;;;5053997;28;20393;-85
2021/08/23 09:39:28;;;;;;;5.95;5.65;;;25.30;56.40;;;;;;5051917;28;20032;-87
2021/08/23 09:42:05;;;;;;;5.38;5.18;;;25.30;56.30;;;;;;5040176;28;20052;-86
2021/08/23 09:44:37;;;;;;;5.18;4.97;;;25.20;56.40;;;;;;5055824;28;20102;-86
2021/08/23 09:47:03;;;;;;;6.15;5.85;;;25.10;56.70;;;;;;5055161;28;20041;-87
2021/08/23 09:49:36;;;;;;;6.75;6.43;;;25.00;56.60;;;;;;5055319;28;20029;-85
2021/08/23 09:52:03;;;;;;;5.78;5.47;;;24.90;56.70;;;;;;5051973;28;20025;-86
2021/08/23 09:54:30;;;;;;;6.00;5.70;;;24.80;56.50;;;;;;5049549;28;20359;-85
2021/08/23 09:56:56;;;;;;;6.03;5.72;;;24.60;56.60;;;;;;5072414;28;20029;-86
2021/08/23 09:59:23;;;;;;;4.97;4.78;;;24.60;56.70;;;;;;5053214;28;20040;-85
2021/08/23 10:01:50;;;;;;;5.32;5.07;;;24.60;56.60;;;;;;5053453;28;20044;-85
2021/08/23 10:04:17;;;;;;;5.70;5.40;;;24.60;56.40;;;;;;5053887;28;20393;-85
2021/08/23 10:06:44;;;;;;;4.40;4.20;;;24.70;56.30;;;;;;5052381;28;20029;-85
2021/08/23 10:09:10;;;;;;;5.38;5.18;;;24.60;56.30;;;;;;5053529;28;20442;-85
2021/08/23 10:11:37;;;;;;;5.57;5.30;;;24.50;56.30;;;;;;5088565;28;20036;-85
2021/08/23 10:14:03;;;;;;;5.22;5.03;;;24.30;56.70;;;;;;5054774;28;20025;-85
2021/08/23 10:16:30;;;;;;;5.70;5.43;;;24.00;56.90;;;;;;5038365;28;20501;-85
2021/08/23 10:18:56;;;;;;;4.32;4.13;;;23.90;57.30;;;;;;5033135;28;20521;-85
2021/08/23 10:21:22;;;;;;;4.15;3.92;;;23.70;57.50;;;;;;5065724;28;20033;-85
2021/08/23 10:23:49;;;;;;;3.88;3.67;;;23.60;57.40;;;;;;5055870;28;20052;-86
2021/08/23 10:26:16;;;;;;;3.65;3.45;;;23.60;57.60;;;;;;5055021;28;20040;-85
2021/08/23 10:28:42;;;;;;;4.35;4.13;;;23.70;57.60;;;;;;5054641;28;20394;-84
2021/08/23 10:31:09;;;;;;;3.85;3.65;;;23.70;58.10;;;;;;5053089;28;20032;-85
2021/08/23 10:33:39;;;;;;;3.90;3.70;;;23.70;57.50;;;;;;5049062;28;20044;-85
2021/08/23 10:36:07;;;;;;;4.10;3.90;;;23.80;57.50;;;;;;5055205;28;20021;-84
2021/08/23 10:38:33;;;;;;;4.50;4.30;;;23.80;57.40;;;;;;5054238;28;20052;-86
2021/08/23 10:41:16;;;;;;;4.30;4.10;;;23.90;57.30;;;;;;5053583;28;20489;-85
2021/08/23 10:43:57;;;;;;;4.75;4.55;;;24.00;57.20;;;;;;5053239;28;20054;-85
2021/08/23 10:46:27;;;;;;;6.05;5.65;;;24.30;57.00;;;;;;5053060;28;20409;-85
2021/08/23 10:48:57;;;;;;;;;;;24.50;56.60;;;;;;5034475;28;20503;-85
2021/08/23 10:51:34;;;;;;;6.82;6.43;;;24.60;56.40;;;;;;5051262;28;19913;-85
2021/08/23 10:54:00;;;;;;;6.70;6.30;;;24.60;56.40;;;;;;5063268;28;20032;-86
2021/08/23 10:56:47;;;;;;;7.13;6.80;;;24.60;56.40;;;;;;5054713;28;20040;-85
2021/08/23 10:59:15;;;;;;;6.25;5.95;;;24.60;56.50;;;;;;5052746;28;20048;-85
2021/08/23 11:01:52;;;;;;;5.63;5.32;;;24.60;56.50;;;;;;5038073;28;20393;-85
2021/08/23 11:04:28;;;;;;;6.30;5.97;;;24.60;56.40;;;;;;5052633;28;20032;-85
2021/08/23 11:06:54;;;;;;;5.93;5.63;;;24.70;56.40;;;;;;5054114;28;20024;-85
2021/08/23 11:09:20;;;;;;;6.40;6.10;;;24.80;56.20;;;;;;5037932;28;20025;-85
2021/08/23 11:11:46;;;;;;;6.45;6.15;;;24.90;56.00;;;;;;5042422;28;20052;-85
2021/08/23 11:14:19;;;;;;;6.57;6.28;;;25.00;55.90;;;;;;5039113;28;20399;-85
2021/08/23 11:16:52;;;;;;;6.47;6.18;;;25.10;55.90;;;;;;5025188;28;20044;-84
2021/08/23 11:19:22;;;;;;;5.85;5.55;;;25.20;55.70;;;;;;5058537;28;20036;-86
2021/08/23 11:21:58;;;;;;;6.00;5.70;;;25.30;55.50;;;;;;5055949;28;20028;-85
2021/08/23 11:24:30;;;;;;;5.75;5.45;;;25.20;55.50;;;;;;5054736;28;20029;-85
2021/08/23 11:27:00;;;;;;;5.30;5.10;;;25.20;55.50;;;;;;5059941;28;20037;-85
2021/08/23 11:29:30;;;;;;;6.00;5.47;;;25.30;55.50;;;;;;5055624;28;20021;-84
2021/08/23 11:31:57;;;;;;;5.27;5.07;;;25.40;55.30;;;;;;5056531;28;20040;-85
2021/08/23 11:34:27;;;;;;;5.15;4.95;;;25.40;55.40;;;;;;5055997;28;20037;-86
2021/08/23 11:37:00;;;;;;;5.27;5.03;;;25.30;55.30;;;;;;5069370;28;20032;-85
2021/08/23 11:39:30;;;;;;;4.90;4.70;;;25.30;55.40;;;;;;5052475;28;20028;-85
2021/08/23 11:42:01;;;;;;;5.03;4.82;;;25.20;55.50;;;;;;5074708;28;20017;-85
2021/08/23 11:44:27;;;;;;;5.35;5.15;;;25.30;55.50;;;;;;5044029;28;20037;-85
2021/08/23 11:47:01;;;;;;;5.50;5.30;;;25.50;55.20;;;;;;5057364;28;20044;-84
2021/08/23 11:49:31;;;;;;;5.78;5.47;;;25.60;55.10;;;;;;5041020;28;20024;-85
2021/08/23 11:51:59;;;;;;;5.85;5.55;;;25.80;55.00;;;;;;5054151;28;20029;-85
2021/08/23 11:54:25;;;;;;;6.63;6.28;;;26.00;54.80;;;;;;5036355;28;20036;-86
2021/08/23 11:56:51;;;;;;;7.10;6.80;;;26.20;54.60;;;;;;5058084;28;20022;-84
2021/08/23 11:59:17;;;;;;;7.20;6.90;;;26.30;54.30;;;;;;5057584;28;20036;-85
2021/08/23 12:01:43;;;;;;;6.35;6.05;;;26.20;54.20;;;;;;5051285;28;20041;-84
2021/08/23 12:04:09;;;;;;;7.05;6.65;;;26.10;54.30;;;;;;5050412;28;20389;-84
2021/08/23 12:06:35;;;;;;;6.63;6.32;;;26.00;54.50;;;;;;5035668;28;20037;-87
2021/08/23 12:09:03;;;;;;;6.03;5.72;;;26.10;54.50;;;;;;5059067;28;20033;-86
2021/08/23 12:11:40;;;;;;;6.95;6.65;;;26.10;54.40;;;;;;5056433;28;20510;-86
2021/08/23 12:14:18;;;;;;;6.00;5.70;;;25.90;54.40;;;;;;5041074;28;20048;-85
2021/08/23 12:16:45;;;;;;;6.32;6.03;;;25.80;54.50;;;;;;5039898;28;20033;-85
2021/08/23 12:19:11;;;;;;;6.00;5.70;;;25.80;54.40;;;;;;5054106;28;20041;-84
2021/08/23 12:21:38;;;;;;;6.07;5.78;;;25.70;54.40;;;;;;5053386;28;20032;-85
2021/08/23 12:24:05;;;;;;;4.90;4.70;;;25.60;54.50;;;;;;5057735;28;20028;-85
2021/08/23 12:26:54;;;;;;;4.43;4.22;;;25.40;54.80;;;;;;5038541;28;20037;-85
2021/08/23 12:29:26;;;;;;;5.20;5.00;;;25.50;54.90;;;;;;5056921;28;20049;-88
2021/08/23 12:31:59;;;;;;;5.38;5.18;;;25.60;54.70;;;;;;5055069;28;20048;-86
2021/08/23 12:34:30;;;;;;;6.13;5.82;;;25.80;54.60;;;;;;5055505;28;20516;-85
2021/08/23 12:36:57;;;;;;;6.32;6.03;;;25.90;54.20;;;;;;5056280;28;20090;-85
2021/08/23 12:39:23;;;;;;;6.18;5.88;;;25.80;53.90;;;;;;5053180;28;20041;-85
2021/08/23 12:41:51;;;;;;;6.40;6.10;;;25.80;54.10;;;;;;5057430;28;20036;-85
2021/08/23 12:44:18;;;;;;;5.88;5.60;;;25.70;54.20;;;;;;5055701;28;20036;-85
2021/08/23 12:46:44;;;;;;;5.43;5.13;;;25.60;54.30;;;;;;5056165;28;20041;-85
2021/08/23 12:49:11;;;;;;;5.32;5.03;;;25.60;54.40;;;;;;5055377;28;20048;-85